sensor_id;sensor_type;location;lat;lon;timestamp;P1;durP1;ratioP1;P2;durP2;ratioP2
20824;SDS011;10573;50.936;6.978;2022-12-24T00:00:21;17.17;;;3.33;;
20824;SDS011;10573;50.936;6.978;2022-12-24T00:02:46;26.27;;;6.60;;
20824;SDS011;10573;50.936;6.978;2022-12-24T00:05:12;19.17;;;3.13;;
20824;SDS011;10573;50.936;6.978;2022-12-24T00:07:37;17.35;;;3.40;;
20824;SDS011;10573;50.936;6.978;2022-12-24T00:10:03;20.37;;;3.40;;
20824;SDS011;10573;50.936;6.978;2022-12-24T00:12:30;14.23;;;2.78;;
20824;SDS011;10573;50.936;6.978;2022-12-24T00:14:55;20.65;;;3.45;;
20824;SDS011;10573;50.936;6.978;2022-12-24T00:17:20;18.00;;;4.20;;
20824;SDS011;10573;50.936;6.978;2022-12-24T00:19:46;15.93;;;3.53;;
20824;SDS011;10573;50.936;6.978;2022-12-24T00:22:11;15.70;;;3.70;;
20824;SDS011;10573;50.936;6.978;2022-12-24T00:24:37;16.93;;;3.70;;
20824;SDS011;10573;50.936;6.978;2022-12-24T00:27:02;17.83;;;2.95;;
20824;SDS011;10573;50.936;6.978;2022-12-24T00:29:29;17.35;;;3.50;;
20824;SDS011;10573;50.936;6.978;2022-12-24T00:31:55;22.50;;;4.13;;
20824;SDS011;10573;50.936;6.978;2022-12-24T00:34:22;18.90;;;3.40;;
20824;SDS011;10573;50.936;6.978;2022-12-24T00:36:47;20.13;;;3.85;;
20824;SDS011;10573;50.936;6.978;2022-12-24T00:39:13;21.80;;;3.40;;
20824;SDS011;10573;50.936;6.978;2022-12-24T00:41:38;17.08;;;3.13;;
20824;SDS011;10573;50.936;6.978;2022-12-24T00:44:05;22.53;;;4.07;;
20824;SDS011;10573;50.936;6.978;2022-12-24T00:46:35;22.00;;;3.38;;
20824;SDS011;10573;50.936;6.978;2022-12-24T00:49:02;17.10;;;3.63;;
20824;SDS011;10573;50.936;6.978;2022-12-24T00:51:28;18.90;;;3.80;;
20824;SDS011;10573;50.936;6.978;2022-12-24T00:53:54;18.20;;;4.05;;
20824;SDS011;10573;50.936;6.978;2022-12-24T00:56:20;23.27;;;3.67;;
20824;SDS011;10573;50.936;6.978;2022-12-24T00:58:46;18.83;;;3.45;;
20824;SDS011;10573;50.936;6.978;2022-12-24T01:01:11;21.92;;;3.22;;
20824;SDS011;10573;50.936;6.978;2022-12-24T01:03:37;16.58;;;3.25;;
20824;SDS011;10573;50.936;6.978;2022-12-24T01:06:04;16.73;;;3.85;;
20824;SDS011;10573;50.936;6.978;2022-12-24T01:08:32;16.60;;;3.00;;
20824;SDS011;10573;50.936;6.978;2022-12-24T01:10:58;16.38;;;3.40;;
20824;SDS011;10573;50.936;6.978;2022-12-24T01:13:25;20.17;;;3.08;;
20824;SDS011;10573;50.936;6.978;2022-12-24T01:15:51;19.17;;;3.60;;
20824;SDS011;10573;50.936;6.978;2022-12-24T01:18:17;17.45;;;2.88;;
20824;SDS011;10573;50.936;6.978;2022-12-24T01:20:42;17.83;;;3.13;;
20824;SDS011;10573;50.936;6.978;2022-12-24T01:23:07;20.57;;;2.83;;
20824;SDS011;10573;50.936;6.978;2022-12-24T01:25:33;17.80;;;3.23;;
20824;SDS011;10573;50.936;6.978;2022-12-24T01:27:59;17.55;;;2.67;;
20824;SDS011;10573;50.936;6.978;2022-12-24T01:30:24;12.37;;;2.50;;
20824;SDS011;10573;50.936;6.978;2022-12-24T01:32:50;16.63;;;3.07;;
20824;SDS011;10573;50.936;6.978;2022-12-24T01:35:15;14.63;;;2.53;;
20824;SDS011;10573;50.936;6.978;2022-12-24T01:37:41;24.55;;;3.78;;
20824;SDS011;10573;50.936;6.978;2022-12-24T01:40:09;15.10;;;2.70;;
20824;SDS011;10573;50.936;6.978;2022-12-24T01:42:57;20.98;;;3.20;;
20824;SDS011;10573;50.936;6.978;2022-12-24T01:48:25;13.85;;;2.70;;
20824;SDS011;10573;50.936;6.978;2022-12-24T01:51:10;15.60;;;2.80;;
20824;SDS011;10573;50.936;6.978;2022-12-24T01:53:38;12.48;;;2.65;;
20824;SDS011;10573;50.936;6.978;2022-12-24T01:56:08;21.17;;;3.13;;
20824;SDS011;10573;50.936;6.978;2022-12-24T01:58:35;16.93;;;3.23;;
20824;SDS011;10573;50.936;6.978;2022-12-24T02:01:03;14.77;;;2.65;;
20824;SDS011;10573;50.936;6.978;2022-12-24T02:03:29;20.05;;;3.40;;
20824;SDS011;10573;50.936;6.978;2022-12-24T02:05:54;15.65;;;2.95;;
20824;SDS011;10573;50.936;6.978;2022-12-24T02:08:22;13.82;;;3.03;;
20824;SDS011;10573;50.936;6.978;2022-12-24T02:10:48;15.03;;;2.93;;
20824;SDS011;10573;50.936;6.978;2022-12-24T02:13:14;19.80;;;3.43;;
20824;SDS011;10573;50.936;6.978;2022-12-24T02:18:32;17.90;;;2.60;;
20824;SDS011;10573;50.936;6.978;2022-12-24T02:21:11;16.60;;;2.65;;
20824;SDS011;10573;50.936;6.978;2022-12-24T02:26:31;17.20;;;3.00;;
20824;SDS011;10573;50.936;6.978;2022-12-24T02:29:22;13.98;;;3.15;;
20824;SDS011;10573;50.936;6.978;2022-12-24T02:31:52;16.17;;;2.90;;
20824;SDS011;10573;50.936;6.978;2022-12-24T02:34:30;17.92;;;3.65;;
20824;SDS011;10573;50.936;6.978;2022-12-24T02:36:58;18.25;;;3.45;;
20824;SDS011;10573;50.936;6.978;2022-12-24T02:39:39;18.38;;;3.25;;
20824;SDS011;10573;50.936;6.978;2022-12-24T02:42:19;23.38;;;3.08;;
20824;SDS011;10573;50.936;6.978;2022-12-24T02:47:16;20.50;;;3.05;;
20824;SDS011;10573;50.936;6.978;2022-12-24T02:49:44;12.95;;;3.35;;
20824;SDS011;10573;50.936;6.978;2022-12-24T02:54:57;17.13;;;2.95;;
20824;SDS011;10573;50.936;6.978;2022-12-24T03:00:03;17.92;;;3.00;;
20824;SDS011;10573;50.936;6.978;2022-12-24T03:02:49;21.20;;;3.40;;
20824;SDS011;10573;50.936;6.978;2022-12-24T03:08:09;18.02;;;3.08;;
20824;SDS011;10573;50.936;6.978;2022-12-24T03:10:54;15.98;;;2.40;;
20824;SDS011;10573;50.936;6.978;2022-12-24T03:13:25;16.30;;;2.72;;
20824;SDS011;10573;50.936;6.978;2022-12-24T03:15:52;16.63;;;3.25;;
20824;SDS011;10573;50.936;6.978;2022-12-24T03:18:20;14.33;;;2.70;;
20824;SDS011;10573;50.936;6.978;2022-12-24T03:21:08;13.00;;;2.30;;
20824;SDS011;10573;50.936;6.978;2022-12-24T03:23:37;16.52;;;2.60;;
20824;SDS011;10573;50.936;6.978;2022-12-24T03:26:05;11.47;;;2.60;;
20824;SDS011;10573;50.936;6.978;2022-12-24T03:28:33;17.05;;;2.55;;
20824;SDS011;10573;50.936;6.978;2022-12-24T03:31:02;13.93;;;2.88;;
20824;SDS011;10573;50.936;6.978;2022-12-24T03:33:29;12.70;;;2.10;;
20824;SDS011;10573;50.936;6.978;2022-12-24T03:35:54;15.05;;;2.22;;
20824;SDS011;10573;50.936;6.978;2022-12-24T03:38:20;11.53;;;2.10;;
20824;SDS011;10573;50.936;6.978;2022-12-24T03:40:45;9.77;;;2.10;;
20824;SDS011;10573;50.936;6.978;2022-12-24T03:43:11;9.60;;;2.20;;
20824;SDS011;10573;50.936;6.978;2022-12-24T03:45:36;12.70;;;1.90;;
20824;SDS011;10573;50.936;6.978;2022-12-24T03:48:01;12.02;;;2.10;;
20824;SDS011;10573;50.936;6.978;2022-12-24T03:50:27;9.30;;;1.90;;
20824;SDS011;10573;50.936;6.978;2022-12-24T03:52:53;7.83;;;1.60;;
20824;SDS011;10573;50.936;6.978;2022-12-24T03:55:19;10.00;;;1.77;;
20824;SDS011;10573;50.936;6.978;2022-12-24T03:57:44;12.97;;;1.80;;
20824;SDS011;10573;50.936;6.978;2022-12-24T04:00:10;6.88;;;1.40;;
20824;SDS011;10573;50.936;6.978;2022-12-24T04:02:36;4.80;;;1.45;;
20824;SDS011;10573;50.936;6.978;2022-12-24T04:05:01;8.00;;;1.40;;
20824;SDS011;10573;50.936;6.978;2022-12-24T04:07:27;8.20;;;1.95;;
20824;SDS011;10573;50.936;6.978;2022-12-24T04:09:53;6.53;;;1.37;;
20824;SDS011;10573;50.936;6.978;2022-12-24T04:12:18;8.13;;;1.37;;
20824;SDS011;10573;50.936;6.978;2022-12-24T04:14:43;5.85;;;1.35;;
20824;SDS011;10573;50.936;6.978;2022-12-24T04:17:09;6.07;;;1.17;;
20824;SDS011;10573;50.936;6.978;2022-12-24T04:19:34;5.70;;;1.42;;
20824;SDS011;10573;50.936;6.978;2022-12-24T04:22:00;6.07;;;1.47;;
20824;SDS011;10573;50.936;6.978;2022-12-24T04:24:25;9.33;;;1.57;;
20824;SDS011;10573;50.936;6.978;2022-12-24T04:26:50;6.27;;;1.30;;
20824;SDS011;10573;50.936;6.978;2022-12-24T04:29:16;4.33;;;1.20;;
20824;SDS011;10573;50.936;6.978;2022-12-24T04:31:41;6.55;;;1.05;;
20824;SDS011;10573;50.936;6.978;2022-12-24T04:34:06;6.60;;;1.07;;
20824;SDS011;10573;50.936;6.978;2022-12-24T04:36:32;4.30;;;0.85;;
20824;SDS011;10573;50.936;6.978;2022-12-24T04:38:58;5.78;;;1.30;;
20824;SDS011;10573;50.936;6.978;2022-12-24T04:41:23;4.17;;;0.87;;
20824;SDS011;10573;50.936;6.978;2022-12-24T04:43:49;5.60;;;1.20;;
20824;SDS011;10573;50.936;6.978;2022-12-24T04:46:16;7.20;;;1.52;;
20824;SDS011;10573;50.936;6.978;2022-12-24T04:48:44;6.55;;;1.35;;
20824;SDS011;10573;50.936;6.978;2022-12-24T04:51:11;6.53;;;1.50;;
20824;SDS011;10573;50.936;6.978;2022-12-24T04:53:37;7.17;;;1.23;;
20824;SDS011;10573;50.936;6.978;2022-12-24T04:56:03;7.78;;;1.55;;
20824;SDS011;10573;50.936;6.978;2022-12-24T04:58:33;6.05;;;1.20;;
20824;SDS011;10573;50.936;6.978;2022-12-24T05:01:03;5.03;;;1.07;;
20824;SDS011;10573;50.936;6.978;2022-12-24T05:03:30;4.05;;;1.20;;
20824;SDS011;10573;50.936;6.978;2022-12-24T05:06:05;7.50;;;1.40;;
20824;SDS011;10573;50.936;6.978;2022-12-24T05:08:34;3.55;;;1.20;;
20824;SDS011;10573;50.936;6.978;2022-12-24T05:11:00;6.83;;;1.47;;
20824;SDS011;10573;50.936;6.978;2022-12-24T05:13:26;4.25;;;0.95;;
20824;SDS011;10573;50.936;6.978;2022-12-24T05:15:53;8.30;;;1.50;;
20824;SDS011;10573;50.936;6.978;2022-12-24T05:18:19;5.72;;;1.30;;
20824;SDS011;10573;50.936;6.978;2022-12-24T05:20:45;7.78;;;1.30;;
20824;SDS011;10573;50.936;6.978;2022-12-24T05:23:15;4.57;;;1.25;;
20824;SDS011;10573;50.936;6.978;2022-12-24T05:26:00;5.90;;;1.30;;
20824;SDS011;10573;50.936;6.978;2022-12-24T05:28:44;6.80;;;1.13;;
20824;SDS011;10573;50.936;6.978;2022-12-24T05:31:10;5.10;;;1.30;;
20824;SDS011;10573;50.936;6.978;2022-12-24T05:33:35;4.95;;;1.17;;
20824;SDS011;10573;50.936;6.978;2022-12-24T05:36:01;9.63;;;1.30;;
20824;SDS011;10573;50.936;6.978;2022-12-24T05:38:26;5.80;;;1.30;;
20824;SDS011;10573;50.936;6.978;2022-12-24T05:40:52;8.03;;;1.40;;
20824;SDS011;10573;50.936;6.978;2022-12-24T05:43:17;5.83;;;1.40;;
20824;SDS011;10573;50.936;6.978;2022-12-24T05:45:42;6.37;;;1.40;;
20824;SDS011;10573;50.936;6.978;2022-12-24T05:48:08;8.30;;;2.07;;
20824;SDS011;10573;50.936;6.978;2022-12-24T05:50:34;10.10;;;1.85;;
20824;SDS011;10573;50.936;6.978;2022-12-24T05:53:00;7.03;;;1.70;;
20824;SDS011;10573;50.936;6.978;2022-12-24T05:55:25;9.97;;;1.70;;
20824;SDS011;10573;50.936;6.978;2022-12-24T05:57:51;8.23;;;1.73;;
20824;SDS011;10573;50.936;6.978;2022-12-24T06:00:17;8.57;;;1.88;;
20824;SDS011;10573;50.936;6.978;2022-12-24T06:02:42;13.38;;;2.17;;
20824;SDS011;10573;50.936;6.978;2022-12-24T06:05:08;12.30;;;2.50;;
20824;SDS011;10573;50.936;6.978;2022-12-24T06:07:33;9.43;;;2.20;;
20824;SDS011;10573;50.936;6.978;2022-12-24T06:09:59;10.52;;;2.00;;
20824;SDS011;10573;50.936;6.978;2022-12-24T06:12:24;10.47;;;2.37;;
20824;SDS011;10573;50.936;6.978;2022-12-24T06:14:50;10.40;;;2.50;;
20824;SDS011;10573;50.936;6.978;2022-12-24T06:17:15;13.83;;;2.90;;
20824;SDS011;10573;50.936;6.978;2022-12-24T06:19:40;10.43;;;2.40;;
20824;SDS011;10573;50.936;6.978;2022-12-24T06:22:06;13.97;;;2.50;;
20824;SDS011;10573;50.936;6.978;2022-12-24T06:24:31;9.93;;;2.70;;
20824;SDS011;10573;50.936;6.978;2022-12-24T06:26:57;14.70;;;2.50;;
20824;SDS011;10573;50.936;6.978;2022-12-24T06:29:22;12.57;;;2.30;;
20824;SDS011;10573;50.936;6.978;2022-12-24T06:31:47;14.40;;;2.45;;
20824;SDS011;10573;50.936;6.978;2022-12-24T06:34:13;11.50;;;2.50;;
20824;SDS011;10573;50.936;6.978;2022-12-24T06:36:38;13.13;;;2.53;;
20824;SDS011;10573;50.936;6.978;2022-12-24T06:39:04;11.30;;;2.67;;
20824;SDS011;10573;50.936;6.978;2022-12-24T06:41:29;14.57;;;2.37;;
20824;SDS011;10573;50.936;6.978;2022-12-24T06:43:55;10.80;;;2.58;;
20824;SDS011;10573;50.936;6.978;2022-12-24T06:46:20;15.37;;;2.67;;
20824;SDS011;10573;50.936;6.978;2022-12-24T06:48:46;12.87;;;2.73;;
20824;SDS011;10573;50.936;6.978;2022-12-24T06:51:12;11.60;;;2.40;;
20824;SDS011;10573;50.936;6.978;2022-12-24T06:53:39;15.93;;;2.80;;
20824;SDS011;10573;50.936;6.978;2022-12-24T06:56:08;13.10;;;2.60;;
20824;SDS011;10573;50.936;6.978;2022-12-24T06:58:36;14.73;;;3.10;;
20824;SDS011;10573;50.936;6.978;2022-12-24T07:01:05;13.15;;;2.67;;
20824;SDS011;10573;50.936;6.978;2022-12-24T07:03:33;17.42;;;3.15;;
20824;SDS011;10573;50.936;6.978;2022-12-24T07:05:58;17.45;;;3.10;;
20824;SDS011;10573;50.936;6.978;2022-12-24T07:08:24;14.32;;;3.15;;
20824;SDS011;10573;50.936;6.978;2022-12-24T07:10:51;15.10;;;2.92;;
20824;SDS011;10573;50.936;6.978;2022-12-24T07:13:17;10.43;;;2.57;;
20824;SDS011;10573;50.936;6.978;2022-12-24T07:15:43;15.15;;;2.90;;
20824;SDS011;10573;50.936;6.978;2022-12-24T07:18:09;15.63;;;3.42;;
20824;SDS011;10573;50.936;6.978;2022-12-24T07:20:34;16.70;;;3.53;;
20824;SDS011;10573;50.936;6.978;2022-12-24T07:23:00;17.37;;;3.20;;
20824;SDS011;10573;50.936;6.978;2022-12-24T07:25:25;16.57;;;3.23;;
20824;SDS011;10573;50.936;6.978;2022-12-24T07:27:51;13.27;;;2.72;;
20824;SDS011;10573;50.936;6.978;2022-12-24T07:30:16;16.37;;;3.00;;
20824;SDS011;10573;50.936;6.978;2022-12-24T07:32:42;20.05;;;3.20;;
20824;SDS011;10573;50.936;6.978;2022-12-24T07:35:08;16.55;;;3.25;;
20824;SDS011;10573;50.936;6.978;2022-12-24T07:37:34;15.30;;;3.10;;
20824;SDS011;10573;50.936;6.978;2022-12-24T07:39:59;16.70;;;2.97;;
20824;SDS011;10573;50.936;6.978;2022-12-24T07:42:25;16.10;;;3.53;;
20824;SDS011;10573;50.936;6.978;2022-12-24T07:44:51;22.52;;;3.47;;
20824;SDS011;10573;50.936;6.978;2022-12-24T07:47:16;21.27;;;3.87;;
20824;SDS011;10573;50.936;6.978;2022-12-24T07:49:42;17.27;;;3.10;;
20824;SDS011;10573;50.936;6.978;2022-12-24T07:52:07;21.03;;;3.67;;
20824;SDS011;10573;50.936;6.978;2022-12-24T07:54:32;15.63;;;3.37;;
20824;SDS011;10573;50.936;6.978;2022-12-24T07:56:58;18.50;;;3.50;;
20824;SDS011;10573;50.936;6.978;2022-12-24T07:59:23;19.83;;;3.47;;
20824;SDS011;10573;50.936;6.978;2022-12-24T08:01:49;22.73;;;3.55;;
20824;SDS011;10573;50.936;6.978;2022-12-24T08:04:14;24.33;;;3.47;;
20824;SDS011;10573;50.936;6.978;2022-12-24T08:06:40;17.97;;;3.50;;
20824;SDS011;10573;50.936;6.978;2022-12-24T08:09:05;18.77;;;3.83;;
20824;SDS011;10573;50.936;6.978;2022-12-24T08:11:31;25.00;;;3.47;;
20824;SDS011;10573;50.936;6.978;2022-12-24T08:13:56;17.20;;;3.13;;
20824;SDS011;10573;50.936;6.978;2022-12-24T08:16:22;22.73;;;3.60;;
20824;SDS011;10573;50.936;6.978;2022-12-24T08:18:47;21.07;;;4.10;;
20824;SDS011;10573;50.936;6.978;2022-12-24T08:21:12;19.07;;;3.30;;
20824;SDS011;10573;50.936;6.978;2022-12-24T08:23:38;17.53;;;2.97;;
20824;SDS011;10573;50.936;6.978;2022-12-24T08:26:06;17.03;;;3.23;;
20824;SDS011;10573;50.936;6.978;2022-12-24T08:28:33;16.07;;;2.93;;
20824;SDS011;10573;50.936;6.978;2022-12-24T08:30:59;19.47;;;3.20;;
20824;SDS011;10573;50.936;6.978;2022-12-24T08:33:24;17.37;;;3.70;;
20824;SDS011;10573;50.936;6.978;2022-12-24T08:35:50;17.93;;;3.67;;
20824;SDS011;10573;50.936;6.978;2022-12-24T08:38:17;18.38;;;3.33;;
20824;SDS011;10573;50.936;6.978;2022-12-24T08:40:43;19.17;;;3.40;;
20824;SDS011;10573;50.936;6.978;2022-12-24T08:43:11;19.10;;;3.13;;
20824;SDS011;10573;50.936;6.978;2022-12-24T08:45:39;26.08;;;3.72;;
20824;SDS011;10573;50.936;6.978;2022-12-24T08:48:06;16.15;;;3.00;;
20824;SDS011;10573;50.936;6.978;2022-12-24T08:50:32;21.13;;;3.92;;
20824;SDS011;10573;50.936;6.978;2022-12-24T08:52:58;21.03;;;3.80;;
20824;SDS011;10573;50.936;6.978;2022-12-24T08:55:24;17.30;;;3.88;;
20824;SDS011;10573;50.936;6.978;2022-12-24T08:57:50;17.00;;;3.78;;
20824;SDS011;10573;50.936;6.978;2022-12-24T09:00:15;15.27;;;3.27;;
20824;SDS011;10573;50.936;6.978;2022-12-24T09:02:41;19.40;;;3.03;;
20824;SDS011;10573;50.936;6.978;2022-12-24T09:05:06;23.60;;;3.80;;
20824;SDS011;10573;50.936;6.978;2022-12-24T09:07:32;19.13;;;3.57;;
20824;SDS011;10573;50.936;6.978;2022-12-24T09:09:57;20.63;;;3.40;;
20824;SDS011;10573;50.936;6.978;2022-12-24T09:12:23;18.60;;;3.70;;
20824;SDS011;10573;50.936;6.978;2022-12-24T09:14:51;18.53;;;3.40;;
20824;SDS011;10573;50.936;6.978;2022-12-24T09:17:18;18.52;;;3.75;;
20824;SDS011;10573;50.936;6.978;2022-12-24T09:19:44;20.90;;;3.53;;
20824;SDS011;10573;50.936;6.978;2022-12-24T09:22:10;23.65;;;3.97;;
20824;SDS011;10573;50.936;6.978;2022-12-24T09:24:35;22.10;;;4.10;;
20824;SDS011;10573;50.936;6.978;2022-12-24T09:27:01;22.90;;;3.67;;
20824;SDS011;10573;50.936;6.978;2022-12-24T09:29:28;21.00;;;3.83;;
20824;SDS011;10573;50.936;6.978;2022-12-24T09:31:53;16.63;;;3.40;;
20824;SDS011;10573;50.936;6.978;2022-12-24T09:34:20;16.90;;;3.33;;
20824;SDS011;10573;50.936;6.978;2022-12-24T09:36:45;17.00;;;3.65;;
20824;SDS011;10573;50.936;6.978;2022-12-24T09:39:11;20.17;;;3.53;;
20824;SDS011;10573;50.936;6.978;2022-12-24T09:41:43;15.43;;;3.43;;
20824;SDS011;10573;50.936;6.978;2022-12-24T09:53:01;25.88;;;3.83;;
20824;SDS011;10573;50.936;6.978;2022-12-24T09:55:36;17.10;;;3.35;;
20824;SDS011;10573;50.936;6.978;2022-12-24T09:58:09;21.67;;;3.80;;
20824;SDS011;10573;50.936;6.978;2022-12-24T10:00:44;19.45;;;3.75;;
20824;SDS011;10573;50.936;6.978;2022-12-24T10:03:12;22.47;;;3.50;;
20824;SDS011;10573;50.936;6.978;2022-12-24T10:05:44;24.95;;;3.53;;
20824;SDS011;10573;50.936;6.978;2022-12-24T10:14:21;19.98;;;4.72;;
20824;SDS011;10573;50.936;6.978;2022-12-24T10:22:42;17.88;;;3.60;;
20824;SDS011;10573;50.936;6.978;2022-12-24T10:25:25;19.98;;;3.88;;
20824;SDS011;10573;50.936;6.978;2022-12-24T10:27:58;16.77;;;3.77;;
20824;SDS011;10573;50.936;6.978;2022-12-24T10:30:26;19.00;;;3.72;;
20824;SDS011;10573;50.936;6.978;2022-12-24T10:32:53;25.30;;;4.45;;
20824;SDS011;10573;50.936;6.978;2022-12-24T10:37:58;18.38;;;3.60;;
20824;SDS011;10573;50.936;6.978;2022-12-24T10:40:31;22.10;;;3.67;;
20824;SDS011;10573;50.936;6.978;2022-12-24T10:43:19;19.95;;;3.60;;
20824;SDS011;10573;50.936;6.978;2022-12-24T10:45:53;19.65;;;4.15;;
20824;SDS011;10573;50.936;6.978;2022-12-24T10:48:24;20.35;;;3.65;;
20824;SDS011;10573;50.936;6.978;2022-12-24T10:51:02;19.88;;;4.25;;
20824;SDS011;10573;50.936;6.978;2022-12-24T10:53:37;21.50;;;4.55;;
20824;SDS011;10573;50.936;6.978;2022-12-24T10:56:08;23.38;;;4.60;;
20824;SDS011;10573;50.936;6.978;2022-12-24T10:58:35;20.88;;;4.10;;
20824;SDS011;10573;50.936;6.978;2022-12-24T11:01:06;26.25;;;5.07;;
20824;SDS011;10573;50.936;6.978;2022-12-24T11:03:33;24.52;;;3.72;;
20824;SDS011;10573;50.936;6.978;2022-12-24T11:06:07;25.23;;;4.65;;
20824;SDS011;10573;50.936;6.978;2022-12-24T11:08:35;21.13;;;3.88;;
20824;SDS011;10573;50.936;6.978;2022-12-24T11:11:04;28.65;;;4.18;;
20824;SDS011;10573;50.936;6.978;2022-12-24T11:13:42;25.58;;;4.13;;
20824;SDS011;10573;50.936;6.978;2022-12-24T11:18:54;25.87;;;4.10;;
20824;SDS011;10573;50.936;6.978;2022-12-24T11:21:28;18.55;;;3.97;;
20824;SDS011;10573;50.936;6.978;2022-12-24T11:24:05;24.60;;;3.63;;
20824;SDS011;10573;50.936;6.978;2022-12-24T11:26:52;24.30;;;3.70;;
20824;SDS011;10573;50.936;6.978;2022-12-24T11:29:19;24.88;;;3.88;;
20824;SDS011;10573;50.936;6.978;2022-12-24T11:31:46;20.13;;;3.70;;
20824;SDS011;10573;50.936;6.978;2022-12-24T11:34:16;20.87;;;3.67;;
20824;SDS011;10573;50.936;6.978;2022-12-24T11:39:40;24.52;;;4.32;;
20824;SDS011;10573;50.936;6.978;2022-12-24T11:44:58;19.92;;;3.58;;
20824;SDS011;10573;50.936;6.978;2022-12-24T11:47:36;16.15;;;3.83;;
20824;SDS011;10573;50.936;6.978;2022-12-24T11:52:46;19.92;;;3.55;;
20824;SDS011;10573;50.936;6.978;2022-12-24T11:55:16;17.75;;;3.63;;
20824;SDS011;10573;50.936;6.978;2022-12-24T11:57:51;20.00;;;3.72;;
20824;SDS011;10573;50.936;6.978;2022-12-24T12:00:22;16.05;;;3.38;;
20824;SDS011;10573;50.936;6.978;2022-12-24T12:02:48;21.83;;;3.70;;
20824;SDS011;10573;50.936;6.978;2022-12-24T12:05:23;22.97;;;4.00;;
20824;SDS011;10573;50.936;6.978;2022-12-24T12:07:53;21.48;;;4.45;;
20824;SDS011;10573;50.936;6.978;2022-12-24T12:10:31;21.05;;;3.30;;
20824;SDS011;10573;50.936;6.978;2022-12-24T12:13:04;17.27;;;3.45;;
20824;SDS011;10573;50.936;6.978;2022-12-24T12:15:40;23.05;;;3.90;;
20824;SDS011;10573;50.936;6.978;2022-12-24T12:18:12;20.83;;;3.92;;
20824;SDS011;10573;50.936;6.978;2022-12-24T12:20:42;22.73;;;4.18;;
20824;SDS011;10573;50.936;6.978;2022-12-24T12:23:20;19.40;;;3.53;;
20824;SDS011;10573;50.936;6.978;2022-12-24T12:26:06;21.23;;;4.25;;
20824;SDS011;10573;50.936;6.978;2022-12-24T12:33:41;22.70;;;4.05;;
20824;SDS011;10573;50.936;6.978;2022-12-24T12:36:13;19.47;;;3.90;;
20824;SDS011;10573;50.936;6.978;2022-12-24T12:38:43;21.10;;;3.75;;
20824;SDS011;10573;50.936;6.978;2022-12-24T12:57:53;15.65;;;3.58;;
20824;SDS011;10573;50.936;6.978;2022-12-24T13:00:24;23.63;;;3.95;;
20824;SDS011;10573;50.936;6.978;2022-12-24T13:05:54;19.05;;;3.38;;
20824;SDS011;10573;50.936;6.978;2022-12-24T13:23:20;12.98;;;2.80;;
20824;SDS011;10573;50.936;6.978;2022-12-24T13:25:49;15.35;;;3.33;;
20824;SDS011;10573;50.936;6.978;2022-12-24T13:30:49;14.50;;;3.40;;
20824;SDS011;10573;50.936;6.978;2022-12-24T13:36:07;21.52;;;3.67;;
20824;SDS011;10573;50.936;6.978;2022-12-24T13:54:36;12.75;;;3.15;;
20824;SDS011;10573;50.936;6.978;2022-12-24T13:59:55;17.77;;;3.55;;
20824;SDS011;10573;50.936;6.978;2022-12-24T14:02:23;15.43;;;3.47;;
20824;SDS011;10573;50.936;6.978;2022-12-24T14:04:50;20.38;;;3.55;;
20824;SDS011;10573;50.936;6.978;2022-12-24T14:07:17;14.05;;;3.25;;
20824;SDS011;10573;50.936;6.978;2022-12-24T14:09:47;14.10;;;3.07;;
20824;SDS011;10573;50.936;6.978;2022-12-24T14:12:28;15.98;;;2.85;;
20824;SDS011;10573;50.936;6.978;2022-12-24T14:14:57;13.68;;;3.00;;
20824;SDS011;10573;50.936;6.978;2022-12-24T14:17:43;12.52;;;3.45;;
20824;SDS011;10573;50.936;6.978;2022-12-24T14:20:12;15.35;;;2.90;;
20824;SDS011;10573;50.936;6.978;2022-12-24T14:22:43;13.67;;;3.10;;
20824;SDS011;10573;50.936;6.978;2022-12-24T14:25:14;13.52;;;2.97;;
20824;SDS011;10573;50.936;6.978;2022-12-24T14:30:18;17.67;;;3.60;;
20824;SDS011;10573;50.936;6.978;2022-12-24T14:32:45;15.13;;;2.83;;
20824;SDS011;10573;50.936;6.978;2022-12-24T14:37:39;14.15;;;3.15;;
20824;SDS011;10573;50.936;6.978;2022-12-24T14:40:06;15.67;;;2.77;;
20824;SDS011;10573;50.936;6.978;2022-12-24T14:42:45;22.17;;;3.08;;
20824;SDS011;10573;50.936;6.978;2022-12-24T14:45:31;15.68;;;3.92;;
20824;SDS011;10573;50.936;6.978;2022-12-24T14:50:57;19.35;;;4.40;;
20824;SDS011;10573;50.936;6.978;2022-12-24T14:54:00;16.85;;;3.28;;
20824;SDS011;10573;50.936;6.978;2022-12-24T14:57:09;19.10;;;2.93;;
20824;SDS011;10573;50.936;6.978;2022-12-24T14:59:40;17.30;;;3.20;;
20824;SDS011;10573;50.936;6.978;2022-12-24T15:05:07;14.43;;;3.58;;
20824;SDS011;10573;50.936;6.978;2022-12-24T15:07:32;17.13;;;3.13;;
20824;SDS011;10573;50.936;6.978;2022-12-24T15:10:00;17.95;;;4.05;;
20824;SDS011;10573;50.936;6.978;2022-12-24T15:12:27;17.35;;;3.70;;
20824;SDS011;10573;50.936;6.978;2022-12-24T15:14:53;18.48;;;3.45;;
20824;SDS011;10573;50.936;6.978;2022-12-24T15:17:18;22.07;;;3.97;;
20824;SDS011;10573;50.936;6.978;2022-12-24T15:19:45;21.48;;;4.50;;
20824;SDS011;10573;50.936;6.978;2022-12-24T15:22:27;16.75;;;4.15;;
20824;SDS011;10573;50.936;6.978;2022-12-24T15:24:55;21.38;;;4.18;;
20824;SDS011;10573;50.936;6.978;2022-12-24T15:27:22;18.05;;;3.60;;
20824;SDS011;10573;50.936;6.978;2022-12-24T15:29:50;18.92;;;4.15;;
20824;SDS011;10573;50.936;6.978;2022-12-24T15:32:18;17.70;;;4.60;;
20824;SDS011;10573;50.936;6.978;2022-12-24T15:34:45;17.63;;;4.38;;
20824;SDS011;10573;50.936;6.978;2022-12-24T15:39:40;19.77;;;4.82;;
20824;SDS011;10573;50.936;6.978;2022-12-24T15:42:07;18.35;;;3.90;;
20824;SDS011;10573;50.936;6.978;2022-12-24T15:44:37;18.33;;;3.75;;
20824;SDS011;10573;50.936;6.978;2022-12-24T15:47:13;17.42;;;3.78;;
20824;SDS011;10573;50.936;6.978;2022-12-24T15:49:42;23.37;;;4.00;;
20824;SDS011;10573;50.936;6.978;2022-12-24T15:52:11;23.13;;;4.32;;
20824;SDS011;10573;50.936;6.978;2022-12-24T15:54:43;18.17;;;5.25;;
20824;SDS011;10573;50.936;6.978;2022-12-24T16:00:17;16.75;;;4.18;;
20824;SDS011;10573;50.936;6.978;2022-12-24T16:02:46;20.15;;;4.13;;
20824;SDS011;10573;50.936;6.978;2022-12-24T16:10:52;15.88;;;3.80;;
20824;SDS011;10573;50.936;6.978;2022-12-24T16:13:30;15.57;;;3.63;;
20824;SDS011;10573;50.936;6.978;2022-12-24T16:16:00;16.70;;;3.70;;
20824;SDS011;10573;50.936;6.978;2022-12-24T16:18:38;15.85;;;3.85;;
20824;SDS011;10573;50.936;6.978;2022-12-24T16:21:06;16.88;;;3.95;;
20824;SDS011;10573;50.936;6.978;2022-12-24T16:23:38;20.40;;;4.00;;
20824;SDS011;10573;50.936;6.978;2022-12-24T16:26:11;21.05;;;4.03;;
20824;SDS011;10573;50.936;6.978;2022-12-24T16:28:36;21.25;;;3.90;;
20824;SDS011;10573;50.936;6.978;2022-12-24T16:31:02;26.40;;;4.20;;
20824;SDS011;10573;50.936;6.978;2022-12-24T16:33:28;16.30;;;4.20;;
20824;SDS011;10573;50.936;6.978;2022-12-24T16:35:54;17.50;;;3.80;;
20824;SDS011;10573;50.936;6.978;2022-12-24T16:38:20;20.25;;;4.60;;
20824;SDS011;10573;50.936;6.978;2022-12-24T16:40:45;17.43;;;4.10;;
20824;SDS011;10573;50.936;6.978;2022-12-24T16:43:11;24.30;;;4.32;;
20824;SDS011;10573;50.936;6.978;2022-12-24T16:45:59;16.05;;;4.20;;
20824;SDS011;10573;50.936;6.978;2022-12-24T16:48:26;15.07;;;5.07;;
20824;SDS011;10573;50.936;6.978;2022-12-24T16:50:53;16.83;;;4.55;;
20824;SDS011;10573;50.936;6.978;2022-12-24T16:53:19;23.90;;;4.83;;
20824;SDS011;10573;50.936;6.978;2022-12-24T16:55:46;23.30;;;4.97;;
20824;SDS011;10573;50.936;6.978;2022-12-24T16:58:14;23.90;;;5.72;;
20824;SDS011;10573;50.936;6.978;2022-12-24T17:00:40;19.60;;;5.38;;
20824;SDS011;10573;50.936;6.978;2022-12-24T17:03:06;20.05;;;5.53;;